createdAt,value
2019-04-07T00:01:01.365Z,40.57
2019-04-07T00:03:34.582Z,36.97
2019-04-07T00:06:07.491Z,39.87
2019-04-07T00:08:40.832Z,43.67
2019-04-07T00:11:13.959Z,41.23
2019-04-07T00:13:47.051Z,43.30
2019-04-07T00:16:20.156Z,48.37
2019-04-07T00:18:53.513Z,42.07
2019-04-07T00:21:26.345Z,42.90
2019-04-07T00:24:01.509Z,50.87
2019-04-07T00:26:34.570Z,45.97
2019-04-07T00:29:07.402Z,48.10
2019-04-07T00:31:40.226Z,43.40
2019-04-07T00:34:13.047Z,45.77
2019-04-07T00:36:46.874Z,54.27
2019-04-07T00:39:20.686Z,38.83
2019-04-07T00:41:53.471Z,47.17
2019-04-07T00:44:25.977Z,46.20
2019-04-07T00:46:58.687Z,45.70
2019-04-07T00:49:31.226Z,52.53
2019-04-07T00:52:05.090Z,48.10
2019-04-07T00:54:38.066Z,43.00
2019-04-07T00:57:10.963Z,51.87
2019-04-07T00:59:44.027Z,55.53
2019-04-07T01:02:17.116Z,53.67
2019-04-07T01:04:49.748Z,43.83
2019-04-07T01:07:22.295Z,44.77
2019-04-07T01:09:55.275Z,48.73
2019-04-07T01:12:28.164Z,49.80
2019-04-07T01:15:00.771Z,43.33
2019-04-07T01:17:34.781Z,49.33
2019-04-07T01:20:10.568Z,48.20
2019-04-07T01:22:44.205Z,39.50
2019-04-07T01:25:16.892Z,44.77
2019-04-07T01:27:49.936Z,50.83
2019-04-07T01:30:22.989Z,48.93
2019-04-07T01:32:56.357Z,44.27
2019-04-07T01:35:29.121Z,42.17
2019-04-07T01:38:02.981Z,49.83
2019-04-07T01:40:35.575Z,44.80
2019-04-07T01:43:16.220Z,46.47
2019-04-07T01:45:55.075Z,62.03
2019-04-07T01:48:29.298Z,53.73
2019-04-07T01:51:03.331Z,48.47
2019-04-07T01:53:53.144Z,51.23
2019-04-07T01:56:36.264Z,55.37
2019-04-07T01:59:13.646Z,75.23
2019-04-07T02:02:04.698Z,51.83
2019-04-07T02:04:43.572Z,52.17
2019-04-07T02:07:27.281Z,48.83
2019-04-07T02:10:08.726Z,54.27
2019-04-07T02:12:42.946Z,52.77
2019-04-07T02:15:33.111Z,62.07
2019-04-07T02:18:16.391Z,53.27
2019-04-07T02:21:04.320Z,59.40
2019-04-07T02:23:43.713Z,53.77
2019-04-07T02:26:28.073Z,57.50
2019-04-07T02:29:06.653Z,60.40
2019-04-07T02:31:40.094Z,56.73
2019-04-07T02:34:16.067Z,60.77
2019-04-07T02:36:56.381Z,57.27
2019-04-07T02:39:34.717Z,58.07
2019-04-07T02:42:07.166Z,69.40
2019-04-07T02:44:41.387Z,56.23
2019-04-07T02:47:15.977Z,57.27
2019-04-07T02:50:03.282Z,61.80
2019-04-07T02:52:37.676Z,63.47
2019-04-07T02:55:13.092Z,66.87
2019-04-07T02:57:47.822Z,55.80
2019-04-07T03:00:22.876Z,64.87
2019-04-07T03:02:57.977Z,57.40
2019-04-07T03:05:38.877Z,54.60
2019-04-07T03:08:18.410Z,65.13
2019-04-07T03:11:02.172Z,69.97
2019-04-07T03:13:54.074Z,80.43
2019-04-07T03:16:33.111Z,84.00
2019-04-07T03:19:23.701Z,59.63
2019-04-07T03:22:08.480Z,60.07
2019-04-07T03:24:42.747Z,69.47
2019-04-07T03:27:33.835Z,73.30
2019-04-07T03:30:11.483Z,72.10
2019-04-07T03:32:53.270Z,66.70
2019-04-07T03:35:43.754Z,61.90
2019-04-07T03:38:33.660Z,60.87
2019-04-07T03:41:23.969Z,66.70
2019-04-07T03:44:03.863Z,79.57
2019-04-07T03:46:44.057Z,81.57
2019-04-07T03:49:35.129Z,86.10
2019-04-07T03:52:12.597Z,94.37
2019-04-07T03:54:57.188Z,78.40
2019-04-07T03:57:45.048Z,69.60
2019-04-07T04:01:08.522Z,63.70
2019-04-07T04:03:46.029Z,77.37
2019-04-07T04:06:19.408Z,94.73
2019-04-07T04:08:56.896Z,81.73
2019-04-07T04:11:32.292Z,76.23
2019-04-07T04:14:23.811Z,59.97
2019-04-07T04:16:57.498Z,73.23
2019-04-07T04:19:30.546Z,63.27
2019-04-07T04:22:03.989Z,57.80
2019-04-07T04:24:36.835Z,76.17
2019-04-07T04:27:09.393Z,74.43
2019-04-07T04:29:43.442Z,84.17
2019-04-07T04:32:16.699Z,84.37
2019-04-07T04:34:49.661Z,65.93
2019-04-07T04:37:37.727Z,76.47
2019-04-07T04:39:57.387Z,67.87
2019-04-07T04:42:31.167Z,63.80
2019-04-07T04:45:04.282Z,60.43
2019-04-07T04:47:37.641Z,65.83
2019-04-07T04:50:12.875Z,63.93
2019-04-07T04:52:46.898Z,61.40
2019-04-07T04:55:20.873Z,59.50
2019-04-07T04:57:54.500Z,67.40
2019-04-07T05:00:27.213Z,62.83
2019-04-07T05:03:00.952Z,61.03
2019-04-07T05:05:34.465Z,64.03
2019-04-07T05:08:07.220Z,60.87
2019-04-07T05:10:39.716Z,69.03
2019-04-07T05:13:12.495Z,64.80
2019-04-07T05:15:45.630Z,73.17
2019-04-07T05:18:18.246Z,77.30
2019-04-07T05:20:51.471Z,68.13
2019-04-07T05:23:25.253Z,67.03
2019-04-07T05:25:58.278Z,64.20
2019-04-07T05:28:33.729Z,62.27
2019-04-07T05:31:05.666Z,59.10
2019-04-07T05:33:38.462Z,67.77
2019-04-07T05:36:11.310Z,63.00
2019-04-07T05:38:44.561Z,73.83
2019-04-07T05:41:17.371Z,61.70
2019-04-07T05:43:50.280Z,73.77
2019-04-07T05:46:23.818Z,63.67
2019-04-07T05:48:56.653Z,76.57
2019-04-07T05:51:30.060Z,56.87
2019-04-07T05:54:03.627Z,59.40
2019-04-07T05:56:36.891Z,63.77
2019-04-07T05:59:12.006Z,56.77
2019-04-07T06:01:44.548Z,63.10
2019-04-07T06:04:19.159Z,59.27
2019-04-07T06:06:54.862Z,57.87
2019-04-07T06:09:26.409Z,49.03
2019-04-07T06:11:59.872Z,54.90
2019-04-07T06:14:32.636Z,57.43
2019-04-07T06:17:06.409Z,56.67
2019-04-07T06:19:41.206Z,56.53
2019-04-07T06:22:13.370Z,58.97
2019-04-07T06:24:46.121Z,55.70
2019-04-07T06:27:18.972Z,55.63
2019-04-07T06:29:52.191Z,69.83
2019-04-07T06:32:26.722Z,63.27
2019-04-07T06:34:59.531Z,54.60
2019-04-07T06:37:33.063Z,60.50
2019-04-07T06:40:06.929Z,54.20
2019-04-07T06:42:40.482Z,51.17
2019-04-07T06:45:15.086Z,53.47
2019-04-07T06:47:53.422Z,56.63
2019-04-07T06:50:48.613Z,61.43
2019-04-07T06:53:18.613Z,52.73
2019-04-07T06:56:08.921Z,52.07
2019-04-07T06:59:00.321Z,53.60
2019-04-07T07:01:38.552Z,58.00
2019-04-07T07:04:29.107Z,53.53
2019-04-07T07:07:07.317Z,44.47
2019-04-07T07:09:51.937Z,53.57
2019-04-07T07:12:38.710Z,57.07
2019-04-07T07:15:25.816Z,66.13
2019-04-07T07:18:10.254Z,48.47
2019-04-07T07:20:51.620Z,55.90
2019-04-07T07:23:28.647Z,56.40
2019-04-07T07:26:03.146Z,47.00
2019-04-07T07:28:36.047Z,43.17
2019-04-07T07:31:10.466Z,50.37
2019-04-07T07:33:43.972Z,48.70
2019-04-07T07:36:20.729Z,51.97
2019-04-07T07:38:59.998Z,61.40
2019-04-07T07:41:26.331Z,52.77
2019-04-07T07:44:03.189Z,43.30
2019-04-07T07:46:34.657Z,50.80
2019-04-07T07:49:07.582Z,51.83
2019-04-07T07:51:40.592Z,48.90
2019-04-07T07:54:15.964Z,44.83
2019-04-07T07:56:51.165Z,46.80
2019-04-07T07:59:24.065Z,42.03
2019-04-07T08:01:57.652Z,44.30
2019-04-07T08:04:30.613Z,42.63
2019-04-07T08:07:03.335Z,44.50
2019-04-07T08:09:35.885Z,46.77
2019-04-07T08:12:09.601Z,43.20
2019-04-07T08:14:43.749Z,45.77
2019-04-07T08:17:16.225Z,43.37
2019-04-07T08:19:49.261Z,43.23
2019-04-07T08:22:31.319Z,41.63
2019-04-07T08:24:56.666Z,49.57
2019-04-07T08:27:31.715Z,44.77
2019-04-07T08:30:09.949Z,38.90
2019-04-07T08:32:39.897Z,38.03
2019-04-07T08:35:13.101Z,36.10
2019-04-07T08:37:47.876Z,44.03
2019-04-07T08:40:21.503Z,34.60
2019-04-07T08:42:54.121Z,40.70
2019-04-07T08:45:29.977Z,37.13
2019-04-07T08:48:01.227Z,35.87
2019-04-07T08:50:34.271Z,48.13
2019-04-07T08:53:10.335Z,49.73
2019-04-07T08:55:42.778Z,32.13
2019-04-07T08:58:25.167Z,39.03
2019-04-07T09:00:53.738Z,26.37
2019-04-07T09:03:26.576Z,28.43
2019-04-07T09:05:59.792Z,34.00
2019-04-07T09:08:34.707Z,26.87
2019-04-07T09:11:08.995Z,23.67
2019-04-07T09:13:44.100Z,32.60
2019-04-07T09:16:25.050Z,33.53
2019-04-07T09:19:08.366Z,24.45
2019-04-07T09:21:59.141Z,33.03
2019-04-07T09:24:33.555Z,31.17
2019-04-07T09:27:08.101Z,23.20
2019-04-07T09:29:53.391Z,25.57
2019-04-07T09:32:29.078Z,24.97
2019-04-07T09:35:22.878Z,34.03
2019-04-07T09:38:14.363Z,29.25
2019-04-07T09:40:48.790Z,27.63
2019-04-07T09:43:32.617Z,26.33
2019-04-07T09:46:14.714Z,36.53
2019-04-07T09:49:07.809Z,30.70
2019-04-07T09:51:41.529Z,32.13
2019-04-07T09:54:19.186Z,26.30
2019-04-07T09:57:09.654Z,33.45
2019-04-07T09:59:56.881Z,34.70
2019-04-07T10:02:34.507Z,41.70
2019-04-07T10:05:11.143Z,34.38
2019-04-07T10:08:00.408Z,32.58
2019-04-07T10:10:51.175Z,34.77
2019-04-07T10:13:25.415Z,24.02
2019-04-07T10:16:16.477Z,29.63
2019-04-07T10:18:50.976Z,28.97
2019-04-07T10:21:26.422Z,29.48
2019-04-07T10:24:17.010Z,26.87
2019-04-07T10:26:51.843Z,31.10
2019-04-07T10:29:41.265Z,32.00
2019-04-07T10:32:34.040Z,25.88
2019-04-07T10:35:12.685Z,29.18
2019-04-07T10:38:00.709Z,22.32
2019-04-07T10:40:40.038Z,26.97
2019-04-07T10:43:15.458Z,39.50
2019-04-07T10:45:50.492Z,29.72
2019-04-07T10:48:41.030Z,27.77
2019-04-07T10:51:30.876Z,23.77
2019-04-07T10:54:14.330Z,31.97
2019-04-07T10:56:51.748Z,36.40
2019-04-07T10:59:32.208Z,24.90
2019-04-07T11:02:09.111Z,28.55
2019-04-07T11:04:45.048Z,24.90
2019-04-07T11:07:34.005Z,31.62
2019-04-07T11:10:15.905Z,24.70
2019-04-07T11:12:58.297Z,31.93
2019-04-07T11:15:39.239Z,28.80
2019-04-07T11:18:20.669Z,31.05
2019-04-07T11:21:02.166Z,26.37
2019-04-07T11:23:53.405Z,31.42
2019-04-07T11:26:25.990Z,22.90
2019-04-07T11:29:04.660Z,31.97
2019-04-07T11:31:39.045Z,24.50
2019-04-07T11:34:16.215Z,35.75
2019-04-07T11:36:57.696Z,26.57
2019-04-07T11:39:35.159Z,27.80
2019-04-07T11:42:10.040Z,33.73
2019-04-07T11:44:47.417Z,32.42
2019-04-07T11:47:26.230Z,32.15
2019-04-07T11:49:59.263Z,26.07
2019-04-07T11:52:36.556Z,28.02
2019-04-07T11:55:31.278Z,35.70
2019-04-07T11:58:30.891Z,27.20
2019-04-07T12:01:12.775Z,27.25
2019-04-07T12:03:55.804Z,31.25
2019-04-07T12:06:31.482Z,36.38
2019-04-07T12:09:09.021Z,27.07
2019-04-07T12:11:41.857Z,29.95
2019-04-07T12:14:22.564Z,23.50
2019-04-07T12:17:13.769Z,34.95
2019-04-07T12:20:05.335Z,22.13
2019-04-07T12:22:55.612Z,31.05
2019-04-07T12:25:33.337Z,27.65
2019-04-07T12:28:09.779Z,28.23
2019-04-07T12:30:48.081Z,26.82
2019-04-07T12:33:22.948Z,24.23
2019-04-07T12:36:09.821Z,23.75
2019-04-07T12:38:46.716Z,22.02
2019-04-07T12:41:27.742Z,23.02
2019-04-07T12:44:09.416Z,23.70
2019-04-07T12:46:44.246Z,24.40
2019-04-07T12:49:21.530Z,29.20
2019-04-07T12:52:04.300Z,20.05
2019-04-07T12:54:55.773Z,25.35
2019-04-07T12:57:30.805Z,26.33
2019-04-07T13:00:10.286Z,27.77
2019-04-07T13:02:54.376Z,23.62
2019-04-07T13:05:36.856Z,29.60
2019-04-07T13:08:14.533Z,24.77
2019-04-07T13:10:49.409Z,39.20
2019-04-07T13:13:42.224Z,22.45
2019-04-07T13:16:21.429Z,30.77
2019-04-07T13:19:13.142Z,24.87
2019-04-07T13:21:58.643Z,23.27
2019-04-07T13:24:48.806Z,20.52
2019-04-07T13:27:23.546Z,24.65
2019-04-07T13:29:56.442Z,24.12
2019-04-07T13:32:41.681Z,25.82
2019-04-07T13:35:22.255Z,24.12
2019-04-07T13:38:09.420Z,19.52
2019-04-07T13:40:46.759Z,24.12
2019-04-07T13:43:19.377Z,18.42
2019-04-07T13:46:04.261Z,18.32
2019-04-07T13:48:48.597Z,29.12
2019-04-07T13:51:27.966Z,18.75
2019-04-07T13:54:08.208Z,23.10
2019-04-07T13:56:59.053Z,25.23
2019-04-07T13:59:49.651Z,17.95
2019-04-07T14:02:35.948Z,17.42
2019-04-07T14:05:11.576Z,20.60
2019-04-07T14:07:57.986Z,18.62
2019-04-07T14:10:44.986Z,17.95
2019-04-07T14:13:19.990Z,18.30
2019-04-07T14:15:53.167Z,21.45
2019-04-07T14:18:45.072Z,16.02
2019-04-07T14:21:22.796Z,12.25
2019-04-07T14:24:01.538Z,14.50
2019-04-07T14:26:38.819Z,14.25
2019-04-07T14:29:18.447Z,17.48
2019-04-07T14:31:59.801Z,10.48
2019-04-07T14:34:50.949Z,19.20
2019-04-07T14:37:36.242Z,19.98
2019-04-07T14:40:11.881Z,19.10
2019-04-07T14:42:47.063Z,20.60
2019-04-07T14:45:23.193Z,20.00
2019-04-07T14:47:58.945Z,18.95
2019-04-07T14:50:49.866Z,20.23
2019-04-07T14:53:34.390Z,25.15
2019-04-07T14:56:22.631Z,13.60
2019-04-07T14:59:09.295Z,14.55
2019-04-07T15:01:50.155Z,27.30
2019-04-07T15:04:25.596Z,18.67
2019-04-07T15:07:10.061Z,24.23
2019-04-07T15:09:48.055Z,25.25
2019-04-07T15:12:26.051Z,22.32
2019-04-07T15:14:58.956Z,15.58
2019-04-07T15:17:32.942Z,17.00
2019-04-07T15:20:12.333Z,18.25
2019-04-07T15:22:44.816Z,22.00
2019-04-07T15:25:18.303Z,25.82
2019-04-07T15:27:52.767Z,17.40
2019-04-07T15:30:26.446Z,19.40
2019-04-07T15:33:01.599Z,18.37
2019-04-07T15:35:34.128Z,30.52
2019-04-07T15:38:07.356Z,27.55
2019-04-07T15:40:40.731Z,17.50
2019-04-07T15:43:13.521Z,21.77
2019-04-07T15:45:48.612Z,18.92
2019-04-07T15:48:25.786Z,18.95
2019-04-07T15:51:00.587Z,17.95
2019-04-07T15:53:30.953Z,18.52
2019-04-07T15:56:06.494Z,23.55
2019-04-07T15:58:38.301Z,17.48
2019-04-07T16:01:11.790Z,17.65
2019-04-07T16:03:47.621Z,19.23
2019-04-07T16:06:19.551Z,17.65
2019-04-07T16:08:53.142Z,20.60
2019-04-07T16:11:28.320Z,16.40
2019-04-07T16:14:01.535Z,19.35
2019-04-07T16:16:34.775Z,17.60
2019-04-07T16:19:10.823Z,18.92
2019-04-07T16:21:44.010Z,29.50
2019-04-07T16:24:17.781Z,24.47
2019-04-07T16:26:51.443Z,26.10
2019-04-07T16:29:24.279Z,28.60
2019-04-07T16:31:58.684Z,41.83
2019-04-07T16:34:31.891Z,23.73
2019-04-07T16:37:04.925Z,26.33
2019-04-07T16:39:37.767Z,19.30
2019-04-07T16:42:11.382Z,38.98
2019-04-07T16:44:45.956Z,33.98
2019-04-07T16:47:24.443Z,33.85
2019-04-07T16:49:54.662Z,32.83
2019-04-07T16:52:31.120Z,41.95
2019-04-07T16:55:02.541Z,42.95
2019-04-07T16:57:35.100Z,50.57
2019-04-07T17:00:15.281Z,43.97
2019-04-07T17:02:48.201Z,39.48
2019-04-07T17:05:21.981Z,38.42
2019-04-07T17:07:56.892Z,30.60
2019-04-07T17:10:32.821Z,39.93
2019-04-07T17:13:15.309Z,41.03
2019-04-07T17:15:40.961Z,56.37
2019-04-07T17:18:39.736Z,27.10
2019-04-07T17:21:15.856Z,28.37
2019-04-07T17:23:53.199Z,22.63
2019-04-07T17:26:24.202Z,20.00
2019-04-07T17:28:58.577Z,19.77
2019-04-07T17:31:32.677Z,23.70
2019-04-07T17:34:09.919Z,21.17
2019-04-07T17:36:41.535Z,27.20
2019-04-07T17:39:14.462Z,27.40
2019-04-07T17:41:49.878Z,26.17
2019-04-07T17:44:32.586Z,19.20
2019-04-07T17:47:19.880Z,20.53
2019-04-07T17:50:06.755Z,29.30
2019-04-07T17:52:58.038Z,39.07
2019-04-07T17:55:41.848Z,31.80
2019-04-07T17:58:22.210Z,31.40
2019-04-07T18:01:12.762Z,38.70
2019-04-07T18:03:48.576Z,54.77
2019-04-07T18:06:31.301Z,38.83
2019-04-07T18:09:12.780Z,55.83
2019-04-07T18:12:03.034Z,61.93
2019-04-07T18:14:39.511Z,59.77
2019-04-07T18:17:15.042Z,75.33
2019-04-07T18:20:08.361Z,60.20
2019-04-07T18:22:58.107Z,60.70
2019-04-07T18:25:34.368Z,108.03
2019-04-07T18:28:09.421Z,243.53
2019-04-07T18:31:03.057Z,270.53
2019-04-07T18:33:38.631Z,245.77
2019-04-07T18:36:29.215Z,201.57
2019-04-07T18:39:17.342Z,486.43
2019-04-07T18:42:11.437Z,230.10
2019-04-07T18:44:55.308Z,144.33
2019-04-07T18:47:35.761Z,175.83
2019-04-07T18:50:29.065Z,158.73
2019-04-07T18:53:05.333Z,159.00
2019-04-07T18:55:39.066Z,170.47
2019-04-07T18:58:31.208Z,164.23
2019-04-07T19:01:08.624Z,162.13
2019-04-07T19:03:40.635Z,136.13
2019-04-07T19:06:18.113Z,101.17
2019-04-07T19:08:54.378Z,87.20
2019-04-07T19:11:28.596Z,72.47
2019-04-07T19:14:30.816Z,84.30
2019-04-07T19:16:50.727Z,111.97
2019-04-07T19:19:33.387Z,400.07
2019-04-07T19:22:24.784Z,246.80
2019-04-07T19:25:17.267Z,171.73
2019-04-07T19:28:08.123Z,170.70
2019-04-07T19:30:59.265Z,222.50
2019-04-07T19:33:33.925Z,154.60
2019-04-07T19:36:27.391Z,145.03
2019-04-07T19:39:02.692Z,150.63
2019-04-07T19:41:56.285Z,98.77
2019-04-07T19:44:38.950Z,118.60
2019-04-07T19:47:22.896Z,136.83
2019-04-07T19:50:13.655Z,139.83
2019-04-07T19:53:10.010Z,102.13
2019-04-07T19:55:47.252Z,102.23
2019-04-07T19:58:26.376Z,102.97
2019-04-07T20:01:12.754Z,113.50
2019-04-07T20:03:50.356Z,119.73
2019-04-07T20:06:27.929Z,143.67
2019-04-07T20:09:20.076Z,293.43
2019-04-07T20:11:55.406Z,137.00
2019-04-07T20:14:51.967Z,109.70
2019-04-07T20:17:38.808Z,95.90
2019-04-07T20:20:14.012Z,99.57
2019-04-07T20:23:00.186Z,113.13
2019-04-07T20:25:44.888Z,134.63
2019-04-07T20:28:30.395Z,128.53
2019-04-07T20:31:23.432Z,160.73
2019-04-07T20:34:02.142Z,129.90
2019-04-07T20:36:38.555Z,104.27
2019-04-07T20:39:27.450Z,99.50
2019-04-07T20:42:01.007Z,142.47
2019-04-07T20:44:36.521Z,153.73
2019-04-07T20:47:27.299Z,145.03
2019-04-07T20:50:05.529Z,351.37
2019-04-07T20:52:46.108Z,151.13
2019-04-07T20:55:39.539Z,140.20
2019-04-07T20:58:25.038Z,137.80
2019-04-07T21:01:04.640Z,108.70
2019-04-07T21:03:51.947Z,169.80
2019-04-07T21:06:44.155Z,160.20
2019-04-07T21:09:35.478Z,163.93
2019-04-07T21:12:19.265Z,182.30
2019-04-07T21:15:18.202Z,197.23
2019-04-07T21:17:42.727Z,173.07
2019-04-07T21:20:18.159Z,154.47
2019-04-07T21:22:52.650Z,133.43
2019-04-07T21:25:43.352Z,111.33
2019-04-07T21:28:18.236Z,94.23
2019-04-07T21:30:55.762Z,92.17
2019-04-07T21:33:45.761Z,90.63
2019-04-07T21:36:18.236Z,104.90
2019-04-07T21:38:58.446Z,93.07
2019-04-07T21:41:44.226Z,83.67
2019-04-07T21:44:27.063Z,74.00
2019-04-07T21:47:02.164Z,97.07
2019-04-07T21:49:38.223Z,99.23
2019-04-07T21:52:18.676Z,94.60
2019-04-07T21:55:00.776Z,87.70
2019-04-07T21:57:52.511Z,105.27
2019-04-07T22:00:32.877Z,83.60
2019-04-07T22:03:18.396Z,97.17
2019-04-07T22:06:09.551Z,90.03
2019-04-07T22:08:45.442Z,91.03
2019-04-07T22:11:22.617Z,88.67
2019-04-07T22:13:53.412Z,82.30
2019-04-07T22:16:30.757Z,87.07
2019-04-07T22:19:01.485Z,91.97
2019-04-07T22:21:34.172Z,90.13
2019-04-07T22:24:06.999Z,98.80
2019-04-07T22:26:40.539Z,88.40
2019-04-07T22:29:13.260Z,106.60
2019-04-07T22:31:47.886Z,90.80
2019-04-07T22:34:20.816Z,95.17
2019-04-07T22:36:53.745Z,75.37
2019-04-07T22:39:28.847Z,85.30
2019-04-07T22:42:02.218Z,93.30
2019-04-07T22:44:35.573Z,94.80
2019-04-07T22:47:09.416Z,113.93
2019-04-07T22:49:43.061Z,103.60
2019-04-07T22:52:17.662Z,108.03
2019-04-07T22:54:49.975Z,87.60
2019-04-07T22:57:23.330Z,94.07
2019-04-07T22:59:56.651Z,92.60
2019-04-07T23:02:29.793Z,88.57
2019-04-07T23:05:03.017Z,129.83
2019-04-07T23:07:35.703Z,185.67
2019-04-07T23:10:09.090Z,116.83
2019-04-07T23:12:42.319Z,83.53
2019-04-07T23:15:16.736Z,97.10
2019-04-07T23:17:49.412Z,77.47
2019-04-07T23:20:22.138Z,88.07
2019-04-07T23:22:54.941Z,85.07
2019-04-07T23:25:28.092Z,87.57
2019-04-07T23:28:00.811Z,85.17
2019-04-07T23:30:33.465Z,122.67
2019-04-07T23:33:06.337Z,114.73
2019-04-07T23:35:39.350Z,101.33
2019-04-07T23:38:12.280Z,99.17
2019-04-07T23:40:44.911Z,89.47
2019-04-07T23:43:17.722Z,87.77
2019-04-07T23:45:50.113Z,85.77
2019-04-07T23:48:22.796Z,77.93
2019-04-07T23:50:56.151Z,78.07
2019-04-07T23:54:11.230Z,101.57
2019-04-07T23:56:45.080Z,81.37
2019-04-07T23:59:17.451Z,97.40
